sensor_id;sensor_type;location;lat;lon;timestamp;P1;durP1;ratioP1;P2;durP2;ratioP2
7471;SDS011;3777;48.722;8.110;2023-11-21T00:01:25;4.93;;;2.50;;
7471;SDS011;3777;48.722;8.110;2023-11-21T00:03:53;6.37;;;2.20;;
7471;SDS011;3777;48.722;8.110;2023-11-21T00:06:20;5.33;;;1.90;;
7471;SDS011;3777;48.722;8.110;2023-11-21T00:08:47;6.53;;;2.13;;
7471;SDS011;3777;48.722;8.110;2023-11-21T00:11:14;6.10;;;2.53;;
7471;SDS011;3777;48.722;8.110;2023-11-21T00:13:41;3.87;;;2.10;;
7471;SDS011;3777;48.722;8.110;2023-11-21T00:16:08;7.50;;;2.30;;
7471;SDS011;3777;48.722;8.110;2023-11-21T00:18:35;8.93;;;2.20;;
7471;SDS011;3777;48.722;8.110;2023-11-21T00:21:04;8.10;;;2.47;;
7471;SDS011;3777;48.722;8.110;2023-11-21T00:23:31;4.93;;;2.10;;
7471;SDS011;3777;48.722;8.110;2023-11-21T00:25:58;4.27;;;2.23;;
7471;SDS011;3777;48.722;8.110;2023-11-21T00:28:25;4.23;;;2.90;;
7471;SDS011;3777;48.722;8.110;2023-11-21T00:30:52;7.93;;;2.50;;
7471;SDS011;3777;48.722;8.110;2023-11-21T00:33:20;4.43;;;2.30;;
7471;SDS011;3777;48.722;8.110;2023-11-21T00:35:47;6.53;;;2.10;;
7471;SDS011;3777;48.722;8.110;2023-11-21T00:38:15;10.00;;;2.77;;
7471;SDS011;3777;48.722;8.110;2023-11-21T00:40:45;5.07;;;2.10;;
7471;SDS011;3777;48.722;8.110;2023-11-21T00:43:12;4.13;;;2.20;;
7471;SDS011;3777;48.722;8.110;2023-11-21T00:45:39;5.27;;;2.20;;
7471;SDS011;3777;48.722;8.110;2023-11-21T00:48:06;4.47;;;2.20;;
7471;SDS011;3777;48.722;8.110;2023-11-21T00:50:33;7.23;;;2.50;;
7471;SDS011;3777;48.722;8.110;2023-11-21T00:53:00;5.00;;;2.33;;
7471;SDS011;3777;48.722;8.110;2023-11-21T00:55:29;3.50;;;2.00;;
7471;SDS011;3777;48.722;8.110;2023-11-21T00:57:56;7.13;;;2.10;;
7471;SDS011;3777;48.722;8.110;2023-11-21T01:00:23;5.77;;;2.17;;
7471;SDS011;3777;48.722;8.110;2023-11-21T01:02:50;5.13;;;1.80;;
7471;SDS011;3777;48.722;8.110;2023-11-21T01:05:17;6.23;;;2.20;;
7471;SDS011;3777;48.722;8.110;2023-11-21T01:07:45;4.50;;;1.93;;
7471;SDS011;3777;48.722;8.110;2023-11-21T01:10:11;4.10;;;2.13;;
7471;SDS011;3777;48.722;8.110;2023-11-21T01:12:40;6.07;;;1.80;;
7471;SDS011;3777;48.722;8.110;2023-11-21T01:15:07;4.97;;;2.07;;
7471;SDS011;3777;48.722;8.110;2023-11-21T01:17:37;5.43;;;2.03;;
7471;SDS011;3777;48.722;8.110;2023-11-21T01:20:05;6.50;;;2.00;;
7471;SDS011;3777;48.722;8.110;2023-11-21T01:22:36;5.07;;;2.43;;
7471;SDS011;3777;48.722;8.110;2023-11-21T01:25:04;6.23;;;2.13;;
7471;SDS011;3777;48.722;8.110;2023-11-21T01:27:32;5.00;;;2.30;;
7471;SDS011;3777;48.722;8.110;2023-11-21T01:30:01;3.87;;;2.30;;
7471;SDS011;3777;48.722;8.110;2023-11-21T01:32:28;5.30;;;1.90;;
7471;SDS011;3777;48.722;8.110;2023-11-21T01:34:55;5.47;;;2.27;;
7471;SDS011;3777;48.722;8.110;2023-11-21T01:37:22;5.60;;;2.10;;
7471;SDS011;3777;48.722;8.110;2023-11-21T01:39:49;6.30;;;2.00;;
7471;SDS011;3777;48.722;8.110;2023-11-21T01:42:16;5.17;;;2.10;;
7471;SDS011;3777;48.722;8.110;2023-11-21T01:44:43;6.10;;;2.17;;
7471;SDS011;3777;48.722;8.110;2023-11-21T01:47:13;9.20;;;2.60;;
7471;SDS011;3777;48.722;8.110;2023-11-21T01:49:40;3.90;;;2.03;;
7471;SDS011;3777;48.722;8.110;2023-11-21T01:52:11;8.03;;;2.50;;
7471;SDS011;3777;48.722;8.110;2023-11-21T01:54:38;4.67;;;2.10;;
7471;SDS011;3777;48.722;8.110;2023-11-21T01:57:07;5.93;;;2.03;;
7471;SDS011;3777;48.722;8.110;2023-11-21T01:59:35;6.03;;;2.13;;
7471;SDS011;3777;48.722;8.110;2023-11-21T02:02:03;4.70;;;2.10;;
7471;SDS011;3777;48.722;8.110;2023-11-21T02:04:32;7.80;;;2.13;;
7471;SDS011;3777;48.722;8.110;2023-11-21T02:07:00;5.13;;;2.00;;
7471;SDS011;3777;48.722;8.110;2023-11-21T02:09:27;4.17;;;2.00;;
7471;SDS011;3777;48.722;8.110;2023-11-21T02:11:55;7.13;;;2.17;;
7471;SDS011;3777;48.722;8.110;2023-11-21T02:14:23;4.00;;;2.23;;
7471;SDS011;3777;48.722;8.110;2023-11-21T02:16:52;5.23;;;2.13;;
7471;SDS011;3777;48.722;8.110;2023-11-21T02:19:21;7.43;;;2.40;;
7471;SDS011;3777;48.722;8.110;2023-11-21T02:21:50;4.37;;;2.20;;
7471;SDS011;3777;48.722;8.110;2023-11-21T02:24:20;6.87;;;2.30;;
7471;SDS011;3777;48.722;8.110;2023-11-21T02:26:47;8.20;;;2.10;;
7471;SDS011;3777;48.722;8.110;2023-11-21T02:29:16;6.60;;;2.20;;
7471;SDS011;3777;48.722;8.110;2023-11-21T02:31:47;6.63;;;2.13;;
7471;SDS011;3777;48.722;8.110;2023-11-21T02:34:14;4.03;;;2.13;;
7471;SDS011;3777;48.722;8.110;2023-11-21T02:36:42;4.00;;;2.10;;
7471;SDS011;3777;48.722;8.110;2023-11-21T02:39:09;5.60;;;2.20;;
7471;SDS011;3777;48.722;8.110;2023-11-21T02:41:38;4.87;;;2.07;;
7471;SDS011;3777;48.722;8.110;2023-11-21T02:44:05;4.43;;;2.20;;
7471;SDS011;3777;48.722;8.110;2023-11-21T02:46:32;3.77;;;2.30;;
7471;SDS011;3777;48.722;8.110;2023-11-21T02:49:00;6.03;;;2.30;;
7471;SDS011;3777;48.722;8.110;2023-11-21T02:51:27;5.33;;;1.97;;
7471;SDS011;3777;48.722;8.110;2023-11-21T02:53:54;7.37;;;2.40;;
7471;SDS011;3777;48.722;8.110;2023-11-21T02:56:23;6.63;;;2.00;;
7471;SDS011;3777;48.722;8.110;2023-11-21T02:58:54;5.97;;;2.40;;
7471;SDS011;3777;48.722;8.110;2023-11-21T03:01:22;4.23;;;2.30;;
7471;SDS011;3777;48.722;8.110;2023-11-21T03:03:50;5.60;;;2.33;;
7471;SDS011;3777;48.722;8.110;2023-11-21T03:06:17;5.53;;;2.33;;
7471;SDS011;3777;48.722;8.110;2023-11-21T03:08:44;7.73;;;2.10;;
7471;SDS011;3777;48.722;8.110;2023-11-21T03:11:11;6.53;;;2.30;;
7471;SDS011;3777;48.722;8.110;2023-11-21T03:13:39;5.47;;;2.30;;
7471;SDS011;3777;48.722;8.110;2023-11-21T03:16:08;4.20;;;1.93;;
7471;SDS011;3777;48.722;8.110;2023-11-21T03:18:35;5.83;;;2.40;;
7471;SDS011;3777;48.722;8.110;2023-11-21T03:21:02;5.27;;;1.90;;
7471;SDS011;3777;48.722;8.110;2023-11-21T03:23:30;4.53;;;2.30;;
7471;SDS011;3777;48.722;8.110;2023-11-21T03:25:57;7.13;;;2.30;;
7471;SDS011;3777;48.722;8.110;2023-11-21T03:28:25;3.50;;;2.00;;
7471;SDS011;3777;48.722;8.110;2023-11-21T03:30:52;4.50;;;2.10;;
7471;SDS011;3777;48.722;8.110;2023-11-21T03:33:20;3.60;;;2.00;;
7471;SDS011;3777;48.722;8.110;2023-11-21T03:35:47;6.73;;;2.90;;
7471;SDS011;3777;48.722;8.110;2023-11-21T03:38:14;7.17;;;2.53;;
7471;SDS011;3777;48.722;8.110;2023-11-21T03:40:42;8.90;;;2.57;;
7471;SDS011;3777;48.722;8.110;2023-11-21T03:43:09;5.33;;;2.30;;
7471;SDS011;3777;48.722;8.110;2023-11-21T03:45:36;4.47;;;2.00;;
7471;SDS011;3777;48.722;8.110;2023-11-21T03:48:05;5.57;;;1.90;;
7471;SDS011;3777;48.722;8.110;2023-11-21T03:50:34;5.23;;;2.37;;
7471;SDS011;3777;48.722;8.110;2023-11-21T03:53:01;8.63;;;2.63;;
7471;SDS011;3777;48.722;8.110;2023-11-21T03:55:28;4.40;;;2.30;;
7471;SDS011;3777;48.722;8.110;2023-11-21T03:57:56;7.07;;;2.77;;
7471;SDS011;3777;48.722;8.110;2023-11-21T04:00:24;7.23;;;2.80;;
7471;SDS011;3777;48.722;8.110;2023-11-21T04:02:52;6.53;;;2.40;;
7471;SDS011;3777;48.722;8.110;2023-11-21T04:05:19;5.10;;;2.70;;
7471;SDS011;3777;48.722;8.110;2023-11-21T04:07:48;5.37;;;2.50;;
7471;SDS011;3777;48.722;8.110;2023-11-21T04:10:15;6.30;;;2.70;;
7471;SDS011;3777;48.722;8.110;2023-11-21T04:12:42;5.03;;;2.40;;
7471;SDS011;3777;48.722;8.110;2023-11-21T04:15:10;4.93;;;2.37;;
7471;SDS011;3777;48.722;8.110;2023-11-21T04:17:38;6.90;;;2.37;;
7471;SDS011;3777;48.722;8.110;2023-11-21T04:20:05;8.37;;;2.33;;
7471;SDS011;3777;48.722;8.110;2023-11-21T04:22:35;8.37;;;2.83;;
7471;SDS011;3777;48.722;8.110;2023-11-21T04:25:05;6.17;;;2.60;;
7471;SDS011;3777;48.722;8.110;2023-11-21T04:27:32;7.10;;;3.00;;
7471;SDS011;3777;48.722;8.110;2023-11-21T04:29:59;5.53;;;2.80;;
7471;SDS011;3777;48.722;8.110;2023-11-21T04:32:26;8.97;;;3.20;;
7471;SDS011;3777;48.722;8.110;2023-11-21T04:34:53;7.20;;;2.80;;
7471;SDS011;3777;48.722;8.110;2023-11-21T04:37:20;6.23;;;2.60;;
7471;SDS011;3777;48.722;8.110;2023-11-21T04:39:47;5.03;;;2.57;;
7471;SDS011;3777;48.722;8.110;2023-11-21T04:42:16;7.30;;;2.40;;
7471;SDS011;3777;48.722;8.110;2023-11-21T04:44:43;5.23;;;2.40;;
7471;SDS011;3777;48.722;8.110;2023-11-21T04:47:10;7.67;;;2.40;;
7471;SDS011;3777;48.722;8.110;2023-11-21T04:49:37;5.03;;;2.40;;
7471;SDS011;3777;48.722;8.110;2023-11-21T04:52:06;6.63;;;2.60;;
7471;SDS011;3777;48.722;8.110;2023-11-21T04:54:34;6.37;;;2.80;;
7471;SDS011;3777;48.722;8.110;2023-11-21T04:57:01;5.70;;;2.40;;
7471;SDS011;3777;48.722;8.110;2023-11-21T04:59:30;5.07;;;2.43;;
7471;SDS011;3777;48.722;8.110;2023-11-21T05:01:57;5.70;;;2.20;;
7471;SDS011;3777;48.722;8.110;2023-11-21T05:04:28;4.50;;;2.40;;
7471;SDS011;3777;48.722;8.110;2023-11-21T05:06:55;7.77;;;2.40;;
7471;SDS011;3777;48.722;8.110;2023-11-21T05:09:22;5.03;;;2.30;;
7471;SDS011;3777;48.722;8.110;2023-11-21T05:11:49;5.17;;;2.17;;
7471;SDS011;3777;48.722;8.110;2023-11-21T05:14:16;5.17;;;2.27;;
7471;SDS011;3777;48.722;8.110;2023-11-21T05:16:45;7.17;;;2.57;;
7471;SDS011;3777;48.722;8.110;2023-11-21T05:19:12;5.43;;;2.40;;
7471;SDS011;3777;48.722;8.110;2023-11-21T05:21:39;4.40;;;2.20;;
7471;SDS011;3777;48.722;8.110;2023-11-21T05:24:06;5.23;;;2.40;;
7471;SDS011;3777;48.722;8.110;2023-11-21T05:26:34;3.97;;;2.40;;
7471;SDS011;3777;48.722;8.110;2023-11-21T05:29:01;6.87;;;2.23;;
7471;SDS011;3777;48.722;8.110;2023-11-21T05:31:28;5.27;;;2.30;;
7471;SDS011;3777;48.722;8.110;2023-11-21T05:33:56;4.13;;;2.03;;
7471;SDS011;3777;48.722;8.110;2023-11-21T05:36:23;4.50;;;2.17;;
7471;SDS011;3777;48.722;8.110;2023-11-21T05:38:50;4.50;;;2.10;;
7471;SDS011;3777;48.722;8.110;2023-11-21T05:41:17;6.33;;;2.50;;
7471;SDS011;3777;48.722;8.110;2023-11-21T05:43:47;4.77;;;2.37;;
7471;SDS011;3777;48.722;8.110;2023-11-21T05:46:14;7.00;;;2.60;;
7471;SDS011;3777;48.722;8.110;2023-11-21T05:48:41;3.87;;;2.50;;
7471;SDS011;3777;48.722;8.110;2023-11-21T05:51:10;7.07;;;2.53;;
7471;SDS011;3777;48.722;8.110;2023-11-21T05:53:37;8.43;;;2.73;;
7471;SDS011;3777;48.722;8.110;2023-11-21T05:56:04;7.43;;;2.60;;
7471;SDS011;3777;48.722;8.110;2023-11-21T05:58:32;5.53;;;2.57;;
7471;SDS011;3777;48.722;8.110;2023-11-21T06:00:59;6.00;;;2.60;;
7471;SDS011;3777;48.722;8.110;2023-11-21T06:03:26;6.07;;;2.60;;
7471;SDS011;3777;48.722;8.110;2023-11-21T06:05:53;6.23;;;2.67;;
7471;SDS011;3777;48.722;8.110;2023-11-21T06:08:21;5.40;;;2.70;;
7471;SDS011;3777;48.722;8.110;2023-11-21T06:10:49;5.27;;;2.60;;
7471;SDS011;3777;48.722;8.110;2023-11-21T06:13:16;5.93;;;2.70;;
7471;SDS011;3777;48.722;8.110;2023-11-21T06:15:45;8.07;;;3.17;;
7471;SDS011;3777;48.722;8.110;2023-11-21T06:18:12;7.63;;;3.20;;
7471;SDS011;3777;48.722;8.110;2023-11-21T06:20:39;6.67;;;2.73;;
7471;SDS011;3777;48.722;8.110;2023-11-21T06:23:06;4.83;;;2.43;;
7471;SDS011;3777;48.722;8.110;2023-11-21T06:25:35;8.40;;;2.70;;
7471;SDS011;3777;48.722;8.110;2023-11-21T06:28:02;5.13;;;3.23;;
7471;SDS011;3777;48.722;8.110;2023-11-21T06:30:30;4.80;;;2.80;;
7471;SDS011;3777;48.722;8.110;2023-11-21T06:32:57;3.47;;;3.10;;
7471;SDS011;3777;48.722;8.110;2023-11-21T06:35:24;6.23;;;3.10;;
7471;SDS011;3777;48.722;8.110;2023-11-21T06:37:52;6.47;;;3.10;;
7471;SDS011;3777;48.722;8.110;2023-11-21T06:40:19;5.57;;;2.90;;
7471;SDS011;3777;48.722;8.110;2023-11-21T06:42:48;6.90;;;3.23;;
7471;SDS011;3777;48.722;8.110;2023-11-21T06:45:15;6.83;;;3.43;;
7471;SDS011;3777;48.722;8.110;2023-11-21T06:47:42;6.23;;;3.53;;
7471;SDS011;3777;48.722;8.110;2023-11-21T06:50:09;7.97;;;3.40;;
7471;SDS011;3777;48.722;8.110;2023-11-21T06:52:36;5.13;;;3.70;;
7471;SDS011;3777;48.722;8.110;2023-11-21T06:55:04;7.07;;;3.10;;
7471;SDS011;3777;48.722;8.110;2023-11-21T06:57:33;4.80;;;3.07;;
7471;SDS011;3777;48.722;8.110;2023-11-21T07:00:02;5.33;;;3.10;;
7471;SDS011;3777;48.722;8.110;2023-11-21T07:02:29;4.40;;;3.60;;
7471;SDS011;3777;48.722;8.110;2023-11-21T07:04:57;6.37;;;3.50;;
7471;SDS011;3777;48.722;8.110;2023-11-21T07:07:24;8.47;;;3.63;;
7471;SDS011;3777;48.722;8.110;2023-11-21T07:09:51;4.77;;;3.30;;
7471;SDS011;3777;48.722;8.110;2023-11-21T07:12:18;5.03;;;3.50;;
7471;SDS011;3777;48.722;8.110;2023-11-21T07:14:48;5.37;;;3.73;;
7471;SDS011;3777;48.722;8.110;2023-11-21T07:17:16;7.70;;;3.30;;
7471;SDS011;3777;48.722;8.110;2023-11-21T07:19:44;4.97;;;3.47;;
7471;SDS011;3777;48.722;8.110;2023-11-21T07:22:11;6.87;;;3.60;;
7471;SDS011;3777;48.722;8.110;2023-11-21T07:24:39;6.33;;;3.63;;
7471;SDS011;3777;48.722;8.110;2023-11-21T07:27:06;6.97;;;3.80;;
7471;SDS011;3777;48.722;8.110;2023-11-21T07:29:32;4.87;;;3.77;;
7471;SDS011;3777;48.722;8.110;2023-11-21T07:31:59;6.23;;;3.57;;
7471;SDS011;3777;48.722;8.110;2023-11-21T07:34:28;5.27;;;3.80;;
7471;SDS011;3777;48.722;8.110;2023-11-21T07:36:55;5.17;;;3.70;;
7471;SDS011;3777;48.722;8.110;2023-11-21T07:39:22;6.87;;;4.13;;
7471;SDS011;3777;48.722;8.110;2023-11-21T07:41:49;4.83;;;3.30;;
7471;SDS011;3777;48.722;8.110;2023-11-21T07:44:16;6.83;;;3.17;;
7471;SDS011;3777;48.722;8.110;2023-11-21T07:46:44;5.13;;;3.43;;
7471;SDS011;3777;48.722;8.110;2023-11-21T07:49:12;5.37;;;3.30;;
7471;SDS011;3777;48.722;8.110;2023-11-21T07:51:43;4.97;;;3.90;;
7471;SDS011;3777;48.722;8.110;2023-11-21T07:54:10;6.57;;;3.33;;
7471;SDS011;3777;48.722;8.110;2023-11-21T07:56:37;6.30;;;4.00;;
7471;SDS011;3777;48.722;8.110;2023-11-21T07:59:04;7.97;;;4.03;;
7471;SDS011;3777;48.722;8.110;2023-11-21T08:01:31;6.47;;;4.20;;
7471;SDS011;3777;48.722;8.110;2023-11-21T08:03:58;6.20;;;4.10;;
7471;SDS011;3777;48.722;8.110;2023-11-21T08:06:28;6.03;;;4.03;;
7471;SDS011;3777;48.722;8.110;2023-11-21T08:08:57;7.47;;;4.60;;
7471;SDS011;3777;48.722;8.110;2023-11-21T08:11:24;7.50;;;4.20;;
7471;SDS011;3777;48.722;8.110;2023-11-21T08:13:54;7.23;;;4.03;;
7471;SDS011;3777;48.722;8.110;2023-11-21T08:16:21;5.90;;;3.97;;
7471;SDS011;3777;48.722;8.110;2023-11-21T08:18:49;7.20;;;4.37;;
7471;SDS011;3777;48.722;8.110;2023-11-21T08:21:16;8.27;;;4.33;;
7471;SDS011;3777;48.722;8.110;2023-11-21T08:23:44;5.10;;;3.97;;
7471;SDS011;3777;48.722;8.110;2023-11-21T08:26:12;5.83;;;4.17;;
7471;SDS011;3777;48.722;8.110;2023-11-21T08:28:42;6.07;;;3.90;;
7471;SDS011;3777;48.722;8.110;2023-11-21T08:31:09;6.13;;;4.40;;
7471;SDS011;3777;48.722;8.110;2023-11-21T08:33:36;6.10;;;4.00;;
7471;SDS011;3777;48.722;8.110;2023-11-21T08:36:06;5.70;;;4.23;;
7471;SDS011;3777;48.722;8.110;2023-11-21T08:38:33;5.70;;;4.20;;
7471;SDS011;3777;48.722;8.110;2023-11-21T08:41:02;4.70;;;4.30;;
7471;SDS011;3777;48.722;8.110;2023-11-21T08:43:34;6.83;;;4.53;;
7471;SDS011;3777;48.722;8.110;2023-11-21T08:46:04;6.00;;;4.83;;
7471;SDS011;3777;48.722;8.110;2023-11-21T08:48:32;6.33;;;4.47;;
7471;SDS011;3777;48.722;8.110;2023-11-21T08:50:58;4.97;;;4.10;;
7471;SDS011;3777;48.722;8.110;2023-11-21T08:53:25;7.47;;;4.10;;
7471;SDS011;3777;48.722;8.110;2023-11-21T08:55:52;4.77;;;3.87;;
7471;SDS011;3777;48.722;8.110;2023-11-21T08:58:20;5.50;;;4.03;;
7471;SDS011;3777;48.722;8.110;2023-11-21T09:00:48;5.13;;;4.17;;
7471;SDS011;3777;48.722;8.110;2023-11-21T09:03:15;5.07;;;4.20;;
7471;SDS011;3777;48.722;8.110;2023-11-21T09:05:42;4.20;;;3.80;;
7471;SDS011;3777;48.722;8.110;2023-11-21T09:08:09;4.27;;;3.87;;
7471;SDS011;3777;48.722;8.110;2023-11-21T09:10:36;4.27;;;3.77;;
7471;SDS011;3777;48.722;8.110;2023-11-21T09:13:04;4.20;;;3.77;;
7471;SDS011;3777;48.722;8.110;2023-11-21T09:15:35;4.23;;;3.67;;
7471;SDS011;3777;48.722;8.110;2023-11-21T09:18:03;4.87;;;3.70;;
7471;SDS011;3777;48.722;8.110;2023-11-21T09:20:31;5.50;;;3.93;;
7471;SDS011;3777;48.722;8.110;2023-11-21T09:22:58;4.67;;;4.20;;
7471;SDS011;3777;48.722;8.110;2023-11-21T09:25:25;4.67;;;3.83;;
7471;SDS011;3777;48.722;8.110;2023-11-21T09:27:54;4.80;;;4.13;;
7471;SDS011;3777;48.722;8.110;2023-11-21T09:30:21;5.23;;;3.93;;
7471;SDS011;3777;48.722;8.110;2023-11-21T09:32:49;5.37;;;4.10;;
7471;SDS011;3777;48.722;8.110;2023-11-21T09:35:18;5.00;;;3.60;;
7471;SDS011;3777;48.722;8.110;2023-11-21T09:37:45;5.23;;;3.80;;
7471;SDS011;3777;48.722;8.110;2023-11-21T09:40:12;5.67;;;4.33;;
7471;SDS011;3777;48.722;8.110;2023-11-21T09:42:43;6.63;;;4.80;;
7471;SDS011;3777;48.722;8.110;2023-11-21T09:45:21;7.37;;;4.97;;
7471;SDS011;3777;48.722;8.110;2023-11-21T09:47:52;5.70;;;4.70;;
7471;SDS011;3777;48.722;8.110;2023-11-21T09:50:24;5.10;;;4.40;;
7471;SDS011;3777;48.722;8.110;2023-11-21T09:52:54;4.90;;;4.40;;
7471;SDS011;3777;48.722;8.110;2023-11-21T09:55:26;5.27;;;4.77;;
7471;SDS011;3777;48.722;8.110;2023-11-21T09:57:56;5.33;;;4.33;;
7471;SDS011;3777;48.722;8.110;2023-11-21T10:00:23;5.93;;;4.30;;
7471;SDS011;3777;48.722;8.110;2023-11-21T10:02:50;5.27;;;4.67;;
7471;SDS011;3777;48.722;8.110;2023-11-21T10:05:19;5.50;;;5.00;;
7471;SDS011;3777;48.722;8.110;2023-11-21T10:07:48;5.80;;;4.60;;
7471;SDS011;3777;48.722;8.110;2023-11-21T10:10:17;4.77;;;4.30;;
7471;SDS011;3777;48.722;8.110;2023-11-21T10:12:48;4.60;;;4.13;;
7471;SDS011;3777;48.722;8.110;2023-11-21T10:15:18;4.03;;;3.73;;
7471;SDS011;3777;48.722;8.110;2023-11-21T10:17:49;4.07;;;3.20;;
7471;SDS011;3777;48.722;8.110;2023-11-21T10:20:18;3.33;;;3.03;;
7471;SDS011;3777;48.722;8.110;2023-11-21T10:22:46;3.40;;;3.10;;
7471;SDS011;3777;48.722;8.110;2023-11-21T10:25:14;3.20;;;2.57;;
7471;SDS011;3777;48.722;8.110;2023-11-21T10:27:43;3.30;;;2.90;;
7471;SDS011;3777;48.722;8.110;2023-11-21T10:30:16;4.60;;;2.90;;
7471;SDS011;3777;48.722;8.110;2023-11-21T10:32:44;3.40;;;3.00;;
7471;SDS011;3777;48.722;8.110;2023-11-21T10:35:11;4.67;;;3.00;;
7471;SDS011;3777;48.722;8.110;2023-11-21T10:37:39;5.03;;;3.50;;
7471;SDS011;3777;48.722;8.110;2023-11-21T10:40:06;4.17;;;3.23;;
7471;SDS011;3777;48.722;8.110;2023-11-21T10:42:38;5.27;;;3.47;;
7471;SDS011;3777;48.722;8.110;2023-11-21T10:45:05;5.07;;;3.53;;
7471;SDS011;3777;48.722;8.110;2023-11-21T10:47:38;3.27;;;2.93;;
7471;SDS011;3777;48.722;8.110;2023-11-21T10:50:05;3.60;;;3.23;;
7471;SDS011;3777;48.722;8.110;2023-11-21T10:52:36;4.70;;;4.30;;
7471;SDS011;3777;48.722;8.110;2023-11-21T10:55:08;4.77;;;4.27;;
7471;SDS011;3777;48.722;8.110;2023-11-21T10:57:44;4.07;;;3.63;;
7471;SDS011;3777;48.722;8.110;2023-11-21T11:00:15;4.20;;;3.80;;
7471;SDS011;3777;48.722;8.110;2023-11-21T11:02:45;4.30;;;3.90;;
7471;SDS011;3777;48.722;8.110;2023-11-21T11:05:14;5.07;;;4.27;;
7471;SDS011;3777;48.722;8.110;2023-11-21T11:07:43;4.30;;;3.93;;
7471;SDS011;3777;48.722;8.110;2023-11-21T11:10:14;4.80;;;4.10;;
7471;SDS011;3777;48.722;8.110;2023-11-21T11:12:41;4.80;;;4.23;;
7471;SDS011;3777;48.722;8.110;2023-11-21T11:15:10;4.53;;;4.10;;
7471;SDS011;3777;48.722;8.110;2023-11-21T11:17:37;5.07;;;4.47;;
7471;SDS011;3777;48.722;8.110;2023-11-21T11:20:06;4.30;;;3.90;;
7471;SDS011;3777;48.722;8.110;2023-11-21T11:22:36;5.33;;;4.80;;
7471;SDS011;3777;48.722;8.110;2023-11-21T11:25:11;5.60;;;4.57;;
7471;SDS011;3777;48.722;8.110;2023-11-21T11:28:01;5.30;;;4.80;;
7471;SDS011;3777;48.722;8.110;2023-11-21T11:30:39;4.73;;;4.20;;
7471;SDS011;3777;48.722;8.110;2023-11-21T11:33:14;6.33;;;4.00;;
7471;SDS011;3777;48.722;8.110;2023-11-21T11:35:52;5.10;;;4.20;;
7471;SDS011;3777;48.722;8.110;2023-11-21T11:38:23;5.10;;;3.53;;
7471;SDS011;3777;48.722;8.110;2023-11-21T11:40:53;4.00;;;3.60;;
7471;SDS011;3777;48.722;8.110;2023-11-21T11:43:29;4.77;;;3.63;;
7471;SDS011;3777;48.722;8.110;2023-11-21T11:45:59;4.60;;;3.73;;
7471;SDS011;3777;48.722;8.110;2023-11-21T11:48:29;6.87;;;3.70;;
7471;SDS011;3777;48.722;8.110;2023-11-21T11:51:01;4.00;;;3.27;;
7471;SDS011;3777;48.722;8.110;2023-11-21T11:53:32;4.17;;;3.77;;
7471;SDS011;3777;48.722;8.110;2023-11-21T11:58:51;3.60;;;3.30;;
7471;SDS011;3777;48.722;8.110;2023-11-21T12:01:20;3.90;;;3.50;;
7471;SDS011;3777;48.722;8.110;2023-11-21T12:06:50;4.57;;;4.07;;
7471;SDS011;3777;48.722;8.110;2023-11-21T12:09:18;6.50;;;4.10;;
7471;SDS011;3777;48.722;8.110;2023-11-21T12:11:49;4.73;;;4.13;;
7471;SDS011;3777;48.722;8.110;2023-11-21T12:14:16;4.20;;;3.80;;
7471;SDS011;3777;48.722;8.110;2023-11-21T12:16:45;4.10;;;3.70;;
7471;SDS011;3777;48.722;8.110;2023-11-21T12:19:13;5.77;;;4.70;;
7471;SDS011;3777;48.722;8.110;2023-11-21T12:21:40;3.97;;;2.97;;
7471;SDS011;3777;48.722;8.110;2023-11-21T12:24:09;5.30;;;3.30;;
7471;SDS011;3777;48.722;8.110;2023-11-21T12:26:38;4.10;;;3.03;;
7471;SDS011;3777;48.722;8.110;2023-11-21T12:29:05;4.50;;;2.67;;
7471;SDS011;3777;48.722;8.110;2023-11-21T12:31:33;3.60;;;2.43;;
7471;SDS011;3777;48.722;8.110;2023-11-21T12:34:03;4.47;;;2.40;;
7471;SDS011;3777;48.722;8.110;2023-11-21T12:36:31;2.77;;;2.30;;
7471;SDS011;3777;48.722;8.110;2023-11-21T12:39:00;3.40;;;2.57;;
7471;SDS011;3777;48.722;8.110;2023-11-21T12:41:28;2.97;;;2.40;;
7471;SDS011;3777;48.722;8.110;2023-11-21T12:43:56;2.93;;;2.63;;
7471;SDS011;3777;48.722;8.110;2023-11-21T12:46:23;2.83;;;2.63;;
7471;SDS011;3777;48.722;8.110;2023-11-21T12:48:54;3.63;;;2.77;;
7471;SDS011;3777;48.722;8.110;2023-11-21T12:51:23;4.07;;;2.73;;
7471;SDS011;3777;48.722;8.110;2023-11-21T12:53:50;3.43;;;2.90;;
7471;SDS011;3777;48.722;8.110;2023-11-21T12:56:18;2.67;;;2.47;;
7471;SDS011;3777;48.722;8.110;2023-11-21T12:58:49;2.80;;;2.47;;
7471;SDS011;3777;48.722;8.110;2023-11-21T13:01:17;3.47;;;2.73;;
7471;SDS011;3777;48.722;8.110;2023-11-21T13:03:47;4.03;;;3.10;;
7471;SDS011;3777;48.722;8.110;2023-11-21T13:06:16;2.97;;;2.67;;
7471;SDS011;3777;48.722;8.110;2023-11-21T13:08:48;3.20;;;2.90;;
7471;SDS011;3777;48.722;8.110;2023-11-21T13:11:15;3.27;;;2.90;;
7471;SDS011;3777;48.722;8.110;2023-11-21T13:13:42;3.63;;;2.60;;
7471;SDS011;3777;48.722;8.110;2023-11-21T13:16:10;4.63;;;3.37;;
7471;SDS011;3777;48.722;8.110;2023-11-21T13:18:38;3.73;;;3.40;;
7471;SDS011;3777;48.722;8.110;2023-11-21T13:21:07;3.77;;;3.10;;
7471;SDS011;3777;48.722;8.110;2023-11-21T13:23:38;3.67;;;3.10;;
7471;SDS011;3777;48.722;8.110;2023-11-21T13:26:08;4.43;;;3.07;;
7471;SDS011;3777;48.722;8.110;2023-11-21T13:28:35;3.97;;;3.10;;
7471;SDS011;3777;48.722;8.110;2023-11-21T13:31:03;3.60;;;3.27;;
7471;SDS011;3777;48.722;8.110;2023-11-21T13:33:45;4.33;;;2.90;;
7471;SDS011;3777;48.722;8.110;2023-11-21T13:36:16;4.20;;;3.33;;
7471;SDS011;3777;48.722;8.110;2023-11-21T13:38:47;4.67;;;3.47;;
7471;SDS011;3777;48.722;8.110;2023-11-21T13:41:16;3.17;;;2.87;;
7471;SDS011;3777;48.722;8.110;2023-11-21T13:43:43;4.13;;;3.73;;
7471;SDS011;3777;48.722;8.110;2023-11-21T13:46:17;5.20;;;4.07;;
7471;SDS011;3777;48.722;8.110;2023-11-21T13:48:47;4.47;;;4.07;;
7471;SDS011;3777;48.722;8.110;2023-11-21T13:51:16;5.50;;;3.70;;
7471;SDS011;3777;48.722;8.110;2023-11-21T13:53:43;4.27;;;3.87;;
7471;SDS011;3777;48.722;8.110;2023-11-21T13:56:13;4.00;;;3.67;;
7471;SDS011;3777;48.722;8.110;2023-11-21T13:58:46;5.13;;;4.10;;
7471;SDS011;3777;48.722;8.110;2023-11-21T14:01:16;4.80;;;3.97;;
7471;SDS011;3777;48.722;8.110;2023-11-21T14:04:06;4.53;;;4.03;;
7471;SDS011;3777;48.722;8.110;2023-11-21T14:06:44;4.90;;;4.37;;
7471;SDS011;3777;48.722;8.110;2023-11-21T14:09:13;5.90;;;4.17;;
7471;SDS011;3777;48.722;8.110;2023-11-21T14:11:48;5.53;;;4.20;;
7471;SDS011;3777;48.722;8.110;2023-11-21T14:14:18;5.67;;;4.10;;
7471;SDS011;3777;48.722;8.110;2023-11-21T14:16:45;4.70;;;4.17;;
7471;SDS011;3777;48.722;8.110;2023-11-21T14:19:12;5.80;;;4.30;;
7471;SDS011;3777;48.722;8.110;2023-11-21T14:21:43;4.57;;;4.10;;
7471;SDS011;3777;48.722;8.110;2023-11-21T14:24:10;5.00;;;4.50;;
7471;SDS011;3777;48.722;8.110;2023-11-21T14:26:39;4.50;;;4.10;;
7471;SDS011;3777;48.722;8.110;2023-11-21T14:29:07;6.70;;;4.27;;
7471;SDS011;3777;48.722;8.110;2023-11-21T14:31:39;4.83;;;4.20;;
7471;SDS011;3777;48.722;8.110;2023-11-21T14:34:06;5.70;;;4.40;;
7471;SDS011;3777;48.722;8.110;2023-11-21T14:36:33;4.40;;;4.00;;
7471;SDS011;3777;48.722;8.110;2023-11-21T14:39:00;4.00;;;3.70;;
7471;SDS011;3777;48.722;8.110;2023-11-21T14:41:27;4.33;;;3.93;;
7471;SDS011;3777;48.722;8.110;2023-11-21T14:43:54;4.13;;;3.73;;
7471;SDS011;3777;48.722;8.110;2023-11-21T14:46:22;4.30;;;3.90;;
7471;SDS011;3777;48.722;8.110;2023-11-21T14:48:51;4.50;;;4.07;;
7471;SDS011;3777;48.722;8.110;2023-11-21T14:51:32;4.33;;;3.93;;
7471;SDS011;3777;48.722;8.110;2023-11-21T14:54:11;4.50;;;3.97;;
7471;SDS011;3777;48.722;8.110;2023-11-21T14:56:38;4.10;;;3.70;;
7471;SDS011;3777;48.722;8.110;2023-11-21T14:59:07;7.30;;;4.53;;
7471;SDS011;3777;48.722;8.110;2023-11-21T15:01:41;4.83;;;4.33;;
7471;SDS011;3777;48.722;8.110;2023-11-21T15:04:12;5.70;;;4.57;;
7471;SDS011;3777;48.722;8.110;2023-11-21T15:06:59;17.97;;;12.97;;
7471;SDS011;3777;48.722;8.110;2023-11-21T15:09:25;20.03;;;13.30;;
7471;SDS011;3777;48.722;8.110;2023-11-21T15:12:06;13.53;;;10.23;;
7471;SDS011;3777;48.722;8.110;2023-11-21T15:14:40;11.57;;;9.63;;
7471;SDS011;3777;48.722;8.110;2023-11-21T15:17:10;7.87;;;6.50;;
7471;SDS011;3777;48.722;8.110;2023-11-21T15:19:42;6.47;;;5.83;;
7471;SDS011;3777;48.722;8.110;2023-11-21T15:22:10;8.10;;;7.40;;
7471;SDS011;3777;48.722;8.110;2023-11-21T15:24:40;6.57;;;5.50;;
7471;SDS011;3777;48.722;8.110;2023-11-21T15:27:09;6.27;;;5.67;;
7471;SDS011;3777;48.722;8.110;2023-11-21T15:29:37;6.20;;;5.53;;